Time;durP1;ratioP1;P1;durP2;ratioP2;P2;SDS_P1;SDS_P2;PMS_P1;PMS_P2;Temp;Humidity;BMP_temperature;BMP_pressure;BME280_temperature;BME280_humidity;BME280_pressure;Samples;Min_cycle;Max_cycle;Signal;HPM_P1;HPM_P2
2023/03/14 00:04:31;;;;;;;;;;;16.80;61.40;;;;;;10338798;28;88564;-69
2023/03/14 00:09:33;;;;;;;;;;;16.80;61.40;;;;;;10341271;28;88200;-70
2023/03/14 00:14:34;;;;;;;;;;;16.80;61.40;;;;;;10340569;28;88263;-69
2023/03/14 00:19:36;;;;;;;;;;;16.70;61.30;;;;;;10340954;28;88174;-69
2023/03/14 00:24:38;;;;;;;;;;;16.70;61.40;;;;;;10340915;28;88399;-69
2023/03/14 00:29:42;;;;;;;;;;;16.70;61.40;;;;;;10338354;28;88290;-69
2023/03/14 00:34:43;;;;;;;;;;;16.70;61.40;;;;;;10340100;28;88920;-69
2023/03/14 00:39:45;;;;;;;;;;;16.70;61.40;;;;;;10338117;28;88274;-69
2023/03/14 00:44:47;;;;;;;;;;;16.70;61.40;;;;;;10339845;28;89613;-68
2023/03/14 00:49:49;;;;;;;;;;;16.70;61.40;;;;;;10339304;28;88270;-68
2023/03/14 00:54:51;;;;;;;;;;;16.70;61.40;;;;;;10339626;28;88202;-68
2023/03/14 00:59:52;;;;;;;;;;;16.60;61.40;;;;;;10338958;28;88972;-68
2023/03/14 01:04:54;;;;;;;;;;;16.60;61.30;;;;;;10340439;28;89329;-68
2023/03/14 01:09:56;;;;;;;;;;;16.60;61.30;;;;;;10339617;28;89359;-69
2023/03/14 01:14:58;;;;;;;;;;;16.60;61.30;;;;;;10338435;28;89182;-68
2023/03/14 01:20:00;;;;;;;;;;;16.60;61.30;;;;;;10338218;28;88333;-69
2023/03/14 01:25:02;;;;;;;;;;;16.60;61.30;;;;;;10338932;28;87531;-68
2023/03/14 01:30:04;;;;;;;;;;;16.60;61.20;;;;;;10336059;28;88244;-68
2023/03/14 01:35:06;;;;;;;;;;;16.60;61.20;;;;;;10337846;28;89279;-69
2023/03/14 01:40:10;;;;;;;;;;;16.60;61.30;;;;;;10337761;28;87965;-69
2023/03/14 01:45:37;;;;;;;;;;;16.60;61.20;;;;;;10338175;28;88030;-69
2023/03/14 01:50:39;;;;;;;;;;;16.60;61.30;;;;;;10337261;28;89288;-69
2023/03/14 01:55:41;;;;;;;;;;;16.60;61.30;;;;;;10335442;28;88805;-69
2023/03/14 02:00:43;;;;;;;;;;;16.60;61.30;;;;;;10337572;28;88041;-69
2023/03/14 02:05:46;;;;;;;;;;;16.60;61.30;;;;;;10336851;28;88582;-69
2023/03/14 02:10:49;;;;;;;;;;;16.60;61.20;;;;;;10336959;28;88458;-69
2023/03/14 02:15:51;;;;;;;;;;;16.60;61.30;;;;;;10336377;28;89138;-69
2023/03/14 02:20:54;;;;;;;;;;;16.60;61.30;;;;;;10334202;28;87933;-69
2023/03/14 02:26:22;;;;;;;;;;;16.60;61.30;;;;;;10336189;28;88321;-69
2023/03/14 02:31:24;;;;;;;;;;;16.60;61.30;;;;;;10336740;28;88044;-69
2023/03/14 02:36:26;;;;;;;;;;;16.60;61.30;;;;;;10335822;28;87995;-69
2023/03/14 02:41:28;;;;;;;;;;;16.60;61.30;;;;;;10334764;28;89387;-69
2023/03/14 02:46:30;;;;;;;;;;;16.60;61.40;;;;;;10334680;28;88074;-69
2023/03/14 02:51:32;;;;;;;;;;;16.60;61.40;;;;;;10336012;28;89056;-69
2023/03/14 02:56:34;;;;;;;;;;;16.60;61.40;;;;;;10335279;28;89588;-69
2023/03/14 03:01:35;;;;;;;;;;;16.50;61.40;;;;;;10335929;28;89245;-69
2023/03/14 03:06:37;;;;;;;;;;;16.50;61.40;;;;;;10335247;28;88288;-69
2023/03/14 03:11:39;;;;;;;;;;;16.50;61.40;;;;;;10334885;28;88515;-69
2023/03/14 03:16:41;;;;;;;;;;;16.50;61.50;;;;;;10334302;28;87911;-69
2023/03/14 03:21:44;;;;;;;;;;;16.50;61.50;;;;;;10334215;28;87695;-69
2023/03/14 03:26:45;;;;;;;;;;;16.50;61.50;;;;;;10333219;28;88117;-69
2023/03/14 03:31:47;;;;;;;;;;;16.50;61.50;;;;;;10334506;28;88625;-68
2023/03/14 03:36:49;;;;;;;;;;;16.50;61.60;;;;;;10337376;28;89091;-69
2023/03/14 03:41:50;;;;;;;;;;;16.50;61.60;;;;;;10340842;28;88948;-69
2023/03/14 03:46:52;;;;;;;;;;;16.50;61.60;;;;;;10340920;28;87849;-69
2023/03/14 03:51:54;;;;;;;;;;;16.40;61.50;;;;;;10340188;28;89879;-69
2023/03/14 03:56:56;;;;;;;;;;;16.50;61.60;;;;;;10340464;28;90261;-69
2023/03/14 04:01:57;;;;;;;;;;;16.40;61.60;;;;;;10338251;28;89594;-69
2023/03/14 04:06:59;;;;;;;;;;;16.40;61.70;;;;;;10338312;28;89683;-69
2023/03/14 04:12:01;;;;;;;;;;;16.40;61.70;;;;;;10338618;28;89733;-69
2023/03/14 04:17:03;;;;;;;;;;;16.40;61.70;;;;;;10339294;28;88268;-69
2023/03/14 04:22:04;;;;;;;;;;;16.40;61.80;;;;;;10338332;28;89013;-69
2023/03/14 04:27:06;;;;;;;;;;;16.40;61.80;;;;;;10338488;28;88152;-69
2023/03/14 04:32:08;;;;;;;;;;;16.40;61.80;;;;;;10339145;28;89224;-69
2023/03/14 04:37:10;;;;;;;;;;;16.40;61.80;;;;;;10339139;28;88317;-69
2023/03/14 04:42:12;;;;;;;;;;;16.40;61.80;;;;;;10337416;28;88137;-69
2023/03/14 06:03:49;;;;;;;;;;;16.60;61.40;;;;;;10365793;28;88433;-69
2023/03/14 06:08:50;;;;;;;;;;;16.80;61.20;;;;;;10418729;28;88997;-69
2023/03/14 06:13:52;;;;;;;;;;;16.80;61.10;;;;;;10418936;28;88736;-69
2023/03/14 06:18:53;;;;;;;;;;;16.80;61.00;;;;;;10399768;28;90413;-70
2023/03/14 06:23:55;;;;;;;;;;;16.80;62.30;;;;;;10417525;28;89021;-68
2023/03/14 06:29:01;;;;;;;;;;;16.80;62.60;;;;;;10417969;28;88775;-68
2023/03/14 06:34:02;;;;;;;;;;;16.80;62.80;;;;;;10419056;28;89300;-69
2023/03/14 06:39:04;;;;;;;;;;;16.80;63.10;;;;;;10418396;28;89006;-67
2023/03/14 06:44:06;;;;;;;;;;;16.80;64.20;;;;;;10416828;28;89994;-68
2023/03/14 06:49:07;;;;;;;;;;;16.80;64.20;;;;;;10413338;28;90174;-67
2023/03/14 06:54:09;;;;;;;;;;;16.80;64.00;;;;;;10417871;28;89547;-66
2023/03/14 06:59:11;;;;;;;;;;;16.80;63.80;;;;;;10416903;28;88973;-66
2023/03/14 07:04:13;;;;;;;;;;;16.70;63.40;;;;;;10415954;28;88529;-68
2023/03/14 07:09:16;;;;;;;;;;;16.80;63.70;;;;;;10415664;28;90122;-64
2023/03/14 07:14:18;;;;;;;;;;;16.80;66.70;;;;;;10415560;28;88483;-68
2023/03/14 07:19:22;;;;;;;;;;;16.80;66.20;;;;;;10415765;28;89824;-67
2023/03/14 07:24:24;;;;;;;;;;;16.80;65.60;;;;;;10417029;28;89127;-67
2023/03/14 07:29:25;;;;;;;;;;;16.70;65.20;;;;;;10416938;28;88856;-67
2023/03/14 07:34:27;;;;;;;;;;;16.70;64.80;;;;;;10416157;28;89032;-67
2023/03/14 07:39:29;;;;;;;;;;;16.60;64.50;;;;;;10415196;28;90709;-67
2023/03/14 07:44:31;;;;;;;;;;;16.60;65.30;;;;;;10398855;28;89074;-68
2023/03/14 07:49:32;;;;;;;;;;;16.60;65.40;;;;;;10415120;28;89658;-66
2023/03/14 07:54:34;;;;;;;;;;;16.60;65.50;;;;;;10415063;28;88492;-65
2023/03/14 07:59:36;;;;;;;;;;;16.60;67.10;;;;;;10397627;28;88185;-64
2023/03/14 08:04:38;;;;;;;;;;;16.60;68.00;;;;;;10415558;28;90225;-64
2023/03/14 08:09:39;;;;;;;;;;;16.60;67.80;;;;;;10415218;28;89004;-64
2023/03/14 08:14:41;;;;;;;;;;;16.60;67.70;;;;;;10415681;28;88038;-65
2023/03/14 08:19:43;;;;;;;;;;;16.50;67.70;;;;;;10415478;28;89237;-65
2023/03/14 08:24:45;;;;;;;;;;;16.50;67.40;;;;;;10419868;27;90048;-65
2023/03/14 08:29:47;;;;;;;;;;;16.50;67.30;;;;;;10421973;28;90085;-66
2023/03/14 08:34:49;;;;;;;;;;;16.50;67.20;;;;;;10421313;28;88679;-66
2023/03/14 08:39:51;;;;;;;;;;;16.50;66.90;;;;;;10421887;28;90013;-66
2023/03/14 08:44:52;;;;;;;;;;;16.40;66.60;;;;;;10421394;28;88048;-66
2023/03/14 08:49:54;;;;;;;;;;;16.40;66.40;;;;;;10421091;28;88836;-66
2023/03/14 08:54:56;;;;;;;;;;;16.40;66.30;;;;;;10420731;28;89030;-66
2023/03/14 08:59:58;;;;;;;;;;;16.40;66.20;;;;;;10420761;28;88743;-66
2023/03/14 09:05:00;;;;;;;;;;;16.40;66.10;;;;;;10421697;28;87920;-66
2023/03/14 09:10:02;;;;;;;;;;;16.40;65.90;;;;;;10402232;28;88667;-65
2023/03/14 09:15:04;;;;;;;;;;;16.40;65.90;;;;;;10421173;28;89022;-66
2023/03/14 09:20:07;;;;;;;;;;;16.40;65.80;;;;;;10419231;28;90202;-66
2023/03/14 09:25:09;;;;;;;;;;;16.40;65.70;;;;;;10420014;28;88678;-66
2023/03/14 09:30:11;;;;;;;;;;;16.40;65.60;;;;;;10419684;28;89933;-66
2023/03/14 09:35:13;;;;;;;;;;;16.40;65.50;;;;;;10420350;27;90113;-66
2023/03/14 09:40:16;;;;;;;;;;;16.40;65.30;;;;;;10418162;28;89561;-66
2023/03/14 09:45:45;;;;;;;;;;;16.40;65.20;;;;;;10419486;28;90069;-66
2023/03/14 09:50:52;;;;;;;;;;;16.40;65.10;;;;;;10416287;28;88548;-66
2023/03/14 09:55:55;;;;;;;;;;;16.40;65.00;;;;;;10419945;28;89195;-66
2023/03/14 10:00:57;;;;;;;;;;;16.40;64.90;;;;;;10418988;28;89098;-66
2023/03/14 10:05:59;;;;;;;;;;;16.40;64.70;;;;;;10419572;28;89269;-66
2023/03/14 10:11:02;;;;;;;;;;;16.40;64.70;;;;;;10417910;28;90273;-67
2023/03/14 10:16:07;;;;;;;;;;;16.40;64.60;;;;;;10419757;28;90023;-66
2023/03/14 10:21:25;;;;;;;;;;;16.30;64.50;;;;;;10418884;28;88778;-66
2023/03/14 10:26:27;;;;;;;;;;;16.30;64.40;;;;;;10418618;28;89789;-66
2023/03/14 10:31:46;;;;;;;;;;;16.40;64.30;;;;;;10418079;28;89528;-66
2023/03/14 10:36:52;;;;;;;;;;;16.30;64.20;;;;;;10418390;28;89001;-66
2023/03/14 10:41:54;;;;;;;;;;;16.30;64.00;;;;;;10400069;28;89138;-66
2023/03/14 10:47:02;;;;;;;;;;;16.30;64.00;;;;;;10417391;28;88490;-66
2023/03/14 10:52:13;;;;;;;;;;;16.40;63.70;;;;;;10417487;28;89461;-66
2023/03/14 10:57:15;;;;;;;;;;;16.40;63.70;;;;;;10398742;28;90019;-66
2023/03/14 11:02:26;;;;;;;;;;;16.40;63.40;;;;;;10417193;28;90570;-66
2023/03/14 11:07:48;;;;;;;;;;;16.40;63.30;;;;;;10417153;28;89961;-66
2023/03/14 11:12:53;;;;;;;;;;;16.40;63.20;;;;;;10417367;28;88814;-66
2023/03/14 11:17:55;;;;;;;;;;;16.50;63.10;;;;;;10398043;28;89704;-66
2023/03/14 11:23:01;;;;;;;;;;;16.50;62.80;;;;;;10416962;28;90119;-66
2023/03/14 11:28:09;;;;;;;;;;;16.50;62.60;;;;;;10416503;28;90384;-66
2023/03/14 11:33:15;;;;;;;;;;;16.50;62.40;;;;;;10416398;28;90438;-66
2023/03/14 11:38:33;;;;;;;;;;;16.50;62.40;;;;;;10416858;28;89259;-67
2023/03/14 11:43:39;;;;;;;;;;;16.60;62.20;;;;;;10416219;28;89932;-66
2023/03/14 11:48:41;;;;;;;;;;;16.60;62.00;;;;;;10415061;28;89353;-66
2023/03/14 11:54:02;;;;;;;;;;;16.60;62.10;;;;;;10415959;28;90245;-66
2023/03/14 11:59:26;;;;;;;;;;;16.60;62.00;;;;;;10421185;28;89712;-66
2023/03/14 12:04:33;;;;;;;;;;;16.60;61.80;;;;;;10423798;28;90187;-66
2023/03/14 12:09:35;;;;;;;;;;;16.60;61.60;;;;;;10422247;28;88270;-66
2023/03/14 12:14:43;;;;;;;;;;;16.60;61.60;;;;;;10405190;28;90068;-66
2023/03/14 12:19:46;;;;;;;;;;;16.60;61.60;;;;;;10387534;28;89923;-66
2023/03/14 12:24:51;;;;;;;;;;;16.60;61.40;;;;;;10423459;28;89975;-66
2023/03/14 12:29:59;;;;;;;;;;;16.60;61.30;;;;;;10423280;28;88340;-66
2023/03/14 12:35:27;;;;;;;;;;;16.60;61.20;;;;;;10422518;28;89715;-66
2023/03/14 12:40:32;;;;;;;;;;;16.60;61.10;;;;;;10421846;28;89065;-66
2023/03/14 12:45:35;;;;;;;;;;;16.70;61.10;;;;;;10421311;28;90044;-67
2023/03/14 12:50:41;;;;;;;;;;;16.70;60.90;;;;;;10401731;28;88952;-67
2023/03/14 12:55:53;;;;;;;;;;;16.70;60.80;;;;;;10420981;28;89388;-66
2023/03/14 13:01:02;;;;;;;;;;;16.70;60.70;;;;;;10421112;28;90010;-66
2023/03/14 13:06:04;;;;;;;;;;;16.70;60.50;;;;;;10420566;28;89066;-67
2023/03/14 13:11:11;;;;;;;;;;;16.70;60.30;;;;;;10419947;27;89550;-67
2023/03/14 13:16:18;;;;;;;;;;;16.70;60.30;;;;;;10420750;28;88491;-66
2023/03/14 13:21:24;;;;;;;;;;;16.70;60.10;;;;;;10422004;28;89561;-67
2023/03/14 13:26:35;;;;;;;;;;;16.70;61.00;;;;;;10421238;28;90655;-67
2023/03/14 13:31:36;;;;;;;;;;;16.70;60.00;;;;;;10420057;28;89010;-66
2023/03/14 13:36:38;;;;;;;;;;;16.80;59.90;;;;;;10419344;28;89838;-67
2023/03/14 13:41:40;;;;;;;;;;;16.80;59.80;;;;;;10419390;28;88976;-67
2023/03/14 13:46:42;;;;;;;;;;;16.80;59.80;;;;;;10419358;28;90131;-67
2023/03/14 13:51:44;;;;;;;;;;;16.80;59.60;;;;;;10419476;28;88483;-67
2023/03/14 13:56:46;;;;;;;;;;;16.80;59.60;;;;;;10401472;28;88199;-67
2023/03/14 14:01:48;;;;;;;;;;;16.80;59.40;;;;;;10418395;28;89823;-66
2023/03/14 14:06:57;;;;;;;;;;;16.80;59.30;;;;;;10418820;28;89458;-67
2023/03/14 14:12:02;;;;;;;;;;;16.80;59.30;;;;;;10400932;28;88187;-67
2023/03/14 14:17:19;;;;;;;;;;;16.80;59.20;;;;;;10418049;28;89200;-66
2023/03/14 14:22:21;;;;;;;;;;;16.80;59.20;;;;;;10417078;27;89315;-67
2023/03/14 14:27:40;;;;;;;;;;;16.80;59.20;;;;;;10399360;28;90848;-67
2023/03/14 14:32:42;;;;;;;;;;;16.80;59.20;;;;;;10417674;28;89016;-66
2023/03/14 14:37:44;;;;;;;;;;;16.70;59.10;;;;;;10417400;28;88788;-67
2023/03/14 14:42:46;;;;;;;;;;;16.70;59.10;;;;;;10399460;28;89728;-67
2023/03/14 14:47:52;;;;;;;;;;;16.70;59.10;;;;;;10416287;28;88299;-67
2023/03/14 14:52:58;;;;;;;;;;;16.70;59.10;;;;;;10399847;28;89869;-67
2023/03/14 14:58:11;;;;;;;;;;;16.60;59.00;;;;;;10417068;28;89270;-67
2023/03/14 15:03:14;;;;;;;;;;;16.60;59.10;;;;;;10418026;28;87988;-68
2023/03/14 15:08:16;;;;;;;;;;;16.60;59.00;;;;;;10416106;28;88367;-67
2023/03/14 15:13:18;;;;;;;;;;;16.60;58.90;;;;;;10418311;28;90112;-67
2023/03/14 15:18:19;;;;;;;;;;;16.60;58.90;;;;;;10415241;28;89461;-66
2023/03/14 15:23:22;;;;;;;;;;;16.60;58.80;;;;;;10415174;28;89031;-66
2023/03/14 15:28:25;;;;;;;;;;;16.60;58.80;;;;;;10416982;28;89896;-67
2023/03/14 15:33:27;;;;;;;;;;;16.60;58.80;;;;;;10422129;28;89083;-67
2023/03/14 15:38:29;;;;;;;;;;;16.60;58.70;;;;;;10423083;28;89220;-67
2023/03/14 15:43:30;;;;;;;;;;;16.50;58.60;;;;;;10423059;28;88847;-67
2023/03/14 15:48:32;;;;;;;;;;;16.50;58.60;;;;;;10422279;28;89987;-67
2023/03/14 15:53:36;;;;;;;;;;;16.50;58.70;;;;;;10424043;28;88988;-67
2023/03/14 15:58:40;;;;;;;;;;;16.50;58.80;;;;;;10422630;28;89521;-67
2023/03/14 16:03:43;;;;;;;;;;;16.50;58.80;;;;;;10422928;28;90282;-67
2023/03/14 16:08:45;;;;;;;;;;;16.40;58.90;;;;;;10403528;28;91020;-67
2023/03/14 16:13:47;;;;;;;;;;;16.50;59.00;;;;;;10421544;28;88092;-67
2023/03/14 16:18:49;;;;;;;;;;;16.50;58.80;;;;;;10422194;28;90097;-67
2023/03/14 16:23:51;;;;;;;;;;;16.40;58.70;;;;;;10437680;27;90305;-66
2023/03/14 16:28:53;;;;;;;;;;;16.50;58.60;;;;;;10421568;28;89475;-67
2023/03/14 16:33:55;;;;;;;;;;;16.40;58.60;;;;;;10421536;28;89048;-66
2023/03/14 16:38:57;;;;;;;;;;;16.40;58.50;;;;;;10421164;28;88990;-67
2023/03/14 16:43:59;;;;;;;;;;;16.40;58.50;;;;;;10421833;27;89350;-67
2023/03/14 16:49:01;;;;;;;;;;;16.40;58.40;;;;;;10421525;28;92094;-67
2023/03/14 16:54:03;;;;;;;;;;;16.40;58.50;;;;;;10421529;28;88816;-66
2023/03/14 16:59:04;;;;;;;;;;;16.40;58.60;;;;;;10435826;27;89741;-66
2023/03/14 17:04:08;;;;;;;;;;;16.40;58.40;;;;;;10420664;28;89303;-66
2023/03/14 17:09:10;;;;;;;;;;;16.40;58.50;;;;;;10418779;28;89309;-66
2023/03/14 17:14:12;;;;;;;;;;;16.40;58.50;;;;;;10420026;28;89032;-66
2023/03/14 17:19:14;;;;;;;;;;;16.40;58.50;;;;;;10420323;28;89419;-66
2023/03/14 17:24:16;;;;;;;;;;;16.50;58.60;;;;;;10420200;28;88899;-67
2023/03/14 17:29:17;;;;;;;;;;;16.60;58.40;;;;;;10419915;28;89984;-66
2023/03/14 17:34:19;;;;;;;;;;;16.80;58.20;;;;;;10420406;28;89282;-67
2023/03/14 17:39:21;;;;;;;;;;;16.90;57.80;;;;;;10419424;28;90003;-67
2023/03/14 17:44:23;;;;;;;;;;;17.10;57.50;;;;;;10418542;28;89137;-67
2023/03/14 17:49:25;;;;;;;;;;;17.10;57.30;;;;;;10417424;28;89863;-66
2023/03/14 17:54:26;;;;;;;;;;;17.20;57.20;;;;;;10418161;27;89764;-67
2023/03/14 17:59:28;;;;;;;;;;;17.30;57.10;;;;;;10418425;28;88786;-66
2023/03/14 18:04:30;;;;;;;;;;;17.30;56.90;;;;;;10419402;28;89083;-68
2023/03/14 18:09:31;;;;;;;;;;;17.30;59.20;;;;;;10419480;28;90294;-66
2023/03/14 18:14:34;;;;;;;;;;;17.40;59.40;;;;;;10419183;28;89094;-65
2023/03/14 18:19:37;;;;;;;;;;;17.40;59.00;;;;;;10417824;28;90165;-65
2023/03/14 18:24:39;;;;;;;;;;;17.50;58.00;;;;;;10418276;28;88292;-67
2023/03/14 18:29:41;;;;;;;;;;;17.40;57.60;;;;;;10418451;28;89831;-65
2023/03/14 18:34:42;;;;;;;;;;;17.40;57.50;;;;;;10416570;28;90041;-65
2023/03/14 18:39:44;;;;;;;;;;;17.40;57.60;;;;;;10416513;28;90141;-66
2023/03/14 18:44:46;;;;;;;;;;;17.40;57.70;;;;;;10417768;28;90817;-65
2023/03/14 18:49:48;;;;;;;;;;;17.40;57.50;;;;;;10415703;28;88926;-66
2023/03/14 18:54:50;;;;;;;;;;;17.40;57.50;;;;;;10416526;28;89985;-67
2023/03/14 18:59:55;;;;;;;;;;;17.40;57.50;;;;;;10415947;28;88780;-66
2023/03/14 19:04:57;;;;;;;;;;;17.30;57.60;;;;;;10416314;28;89415;-66
2023/03/14 19:09:59;;;;;;;;;;;17.40;57.60;;;;;;10416054;28;89601;-66
2023/03/14 19:15:01;;;;;;;;;;;17.40;57.60;;;;;;10416739;28;89240;-66
2023/03/14 19:20:05;;;;;;;;;;;17.40;57.70;;;;;;10414941;28;109626;-66
2023/03/14 19:25:07;;;;;;;;;;;17.30;57.70;;;;;;10415568;28;90051;-66
2023/03/14 19:30:09;;;;;;;;;;;17.30;57.70;;;;;;10415746;28;90530;-66
2023/03/14 19:35:11;;;;;;;;;;;17.40;57.50;;;;;;10415649;28;90069;-66
2023/03/14 19:40:13;;;;;;;;;;;17.40;57.40;;;;;;10415242;28;89224;-66
2023/03/14 19:45:15;;;;;;;;;;;17.50;57.20;;;;;;10412605;28;89271;-66
2023/03/14 19:50:17;;;;;;;;;;;17.50;57.40;;;;;;10414677;28;88052;-66
2023/03/14 19:55:18;;;;;;;;;;;17.50;57.40;;;;;;10415183;28;90209;-66
2023/03/14 20:00:20;;;;;;;;;;;17.50;57.20;;;;;;10414771;28;90082;-66
2023/03/14 20:05:23;;;;;;;;;;;17.50;57.10;;;;;;10416915;28;88025;-65
2023/03/14 20:10:24;;;;;;;;;;;17.60;57.10;;;;;;10414424;28;89750;-66
2023/03/14 20:15:26;;;;;;;;;;;17.60;57.00;;;;;;10415279;28;88868;-66
2023/03/14 20:20:28;;;;;;;;;;;17.70;56.90;;;;;;10418033;28;90738;-65
2023/03/14 20:25:29;;;;;;;;;;;17.60;56.90;;;;;;10420833;28;89260;-66
2023/03/14 20:30:31;;;;;;;;;;;17.60;57.00;;;;;;10420640;28;89347;-66
2023/03/14 20:35:34;;;;;;;;;;;17.60;57.00;;;;;;10402870;28;90083;-66
2023/03/14 20:40:36;;;;;;;;;;;17.60;57.00;;;;;;10420765;28;89302;-65
2023/03/14 20:45:38;;;;;;;;;;;17.60;57.50;;;;;;10421079;28;89093;-65
2023/03/14 20:50:39;;;;;;;;;;;17.60;57.30;;;;;;10420329;28;90109;-65
2023/03/14 20:55:41;;;;;;;;;;;17.50;57.20;;;;;;10421555;28;88339;-65
2023/03/14 21:00:47;;;;;;;;;;;17.50;57.30;;;;;;10419452;28;89716;-65
2023/03/14 21:05:49;;;;;;;;;;;17.50;57.30;;;;;;10419580;28;89263;-64
2023/03/14 21:10:52;;;;;;;;;;;17.40;57.40;;;;;;10401241;28;91253;-65
2023/03/14 21:15:54;;;;;;;;;;;17.40;57.50;;;;;;10419086;28;89119;-65
2023/03/14 21:20:56;;;;;;;;;;;17.30;57.50;;;;;;10420239;28;90226;-65
2023/03/14 21:25:57;;;;;;;;;;;17.30;57.60;;;;;;10418852;28;89423;-65
2023/03/14 21:31:03;;;;;;;;;;;17.20;57.70;;;;;;10418353;27;88860;-64
2023/03/14 21:36:05;;;;;;;;;;;17.20;57.80;;;;;;10401860;28;90088;-65
2023/03/14 21:41:07;;;;;;;;;;;17.20;58.20;;;;;;10417161;28;89172;-65
2023/03/14 21:46:09;;;;;;;;;;;17.10;58.10;;;;;;10420330;28;89129;-65
2023/03/14 21:51:11;;;;;;;;;;;17.10;57.90;;;;;;10418095;28;89267;-65
2023/03/14 21:56:12;;;;;;;;;;;17.00;57.80;;;;;;10401243;28;89265;-65
2023/03/14 22:01:14;;;;;;;;;;;17.00;57.60;;;;;;10418334;28;90241;-65
2023/03/14 22:06:16;;;;;;;;;;;16.90;57.40;;;;;;10400583;28;89985;-65
2023/03/14 22:11:17;;;;;;;;;;;16.90;57.50;;;;;;10417544;28;88094;-65
2023/03/14 22:16:19;;;;;;;;;;;16.80;57.30;;;;;;10418658;28;90119;-65
2023/03/14 22:21:21;;;;;;;;;;;16.80;57.20;;;;;;10417141;28;89193;-65
2023/03/14 22:26:22;;;;;;;;;;;16.80;57.30;;;;;;10417371;28;89054;-65
2023/03/14 22:31:24;;;;;;;;;;;16.80;57.60;;;;;;10417723;28;88997;-65
2023/03/14 22:36:26;;;;;;;;;;;16.70;57.60;;;;;;10418209;28;89257;-65
2023/03/14 22:41:28;;;;;;;;;;;16.70;57.70;;;;;;10416477;27;89033;-65
2023/03/14 22:46:30;;;;;;;;;;;16.70;57.80;;;;;;10416335;28;90092;-65
2023/03/14 22:51:31;;;;;;;;;;;16.60;57.80;;;;;;10416442;28;90637;-65
2023/03/14 22:56:33;;;;;;;;;;;16.60;57.90;;;;;;10415587;28;89092;-65
2023/03/14 23:01:35;;;;;;;;;;;16.60;57.90;;;;;;10417249;28;89963;-65
2023/03/14 23:06:37;;;;;;;;;;;16.60;57.90;;;;;;10416879;28;90015;-65
2023/03/14 23:11:38;;;;;;;;;;;16.50;57.90;;;;;;10417650;28;88995;-64
2023/03/14 23:16:40;;;;;;;;;;;16.50;57.90;;;;;;10415678;28;88974;-65
2023/03/14 23:21:42;;;;;;;;;;;16.50;57.90;;;;;;10416269;28;89333;-65
2023/03/14 23:26:45;;;;;;;;;;;16.50;58.00;;;;;;10417574;28;87685;-65
2023/03/14 23:31:46;;;;;;;;;;;16.40;58.00;;;;;;10398647;28;90361;-65
2023/03/14 23:36:48;;;;;;;;;;;16.40;58.00;;;;;;10416621;28;90030;-65
2023/03/14 23:41:50;;;;;;;;;;;16.40;58.00;;;;;;10416236;28;90388;-65
2023/03/14 23:46:52;;;;;;;;;;;16.40;58.00;;;;;;10415076;28;91313;-65
2023/03/14 23:51:53;;;;;;;;;;;16.40;58.00;;;;;;10416938;27;89296;-65
2023/03/14 23:56:55;;;;;;;;;;;16.40;57.90;;;;;;10422610;28;88087;-65
